createdAt,value
2019-05-14T00:01:11.801Z,71.87
2019-05-14T00:03:41.842Z,72.11
2019-05-14T00:06:11.581Z,72.75
2019-05-14T00:08:42.152Z,72.34
2019-05-14T00:11:13.059Z,72.49
2019-05-14T00:13:42.452Z,72.48
2019-05-14T00:16:11.931Z,73.02
2019-05-14T00:18:42.724Z,73.12
2019-05-14T00:21:12.287Z,73.25
2019-05-14T00:23:43.028Z,73.49
2019-05-14T00:26:12.295Z,73.62
2019-05-14T00:28:42.252Z,75.14
2019-05-14T00:31:12.591Z,74.83
2019-05-14T00:33:42.135Z,74.29
2019-05-14T00:36:12.894Z,74.97
2019-05-14T00:38:42.188Z,75.79
2019-05-14T00:41:11.466Z,75.28
2019-05-14T00:43:41.634Z,75.26
2019-05-14T00:46:11.965Z,74.83
2019-05-14T00:48:42.256Z,75.09
2019-05-14T00:51:12.246Z,75.50
2019-05-14T00:53:42.142Z,75.51
2019-05-14T00:56:12.538Z,75.73
2019-05-14T00:58:41.825Z,75.64
2019-05-14T01:04:01.294Z,75.34
2019-05-14T01:06:31.494Z,76.06
2019-05-14T01:09:01.620Z,75.95
2019-05-14T01:11:32.357Z,75.64
2019-05-14T01:14:01.875Z,75.51
2019-05-14T01:19:07.436Z,76.45
2019-05-14T01:21:55.702Z,75.77
2019-05-14T01:24:43.866Z,75.73
2019-05-14T01:27:13.149Z,76.33
2019-05-14T01:30:02.112Z,76.12
2019-05-14T01:32:32.333Z,76.44
2019-05-14T01:35:01.980Z,76.68
2019-05-14T01:37:31.272Z,76.92
2019-05-14T01:40:02.500Z,76.79
2019-05-14T01:42:32.186Z,77.16
2019-05-14T01:45:27.229Z,77.21
2019-05-14T01:48:11.850Z,77.46
2019-05-14T01:50:41.482Z,77.87
2019-05-14T01:53:12.115Z,78.30
2019-05-14T01:55:41.637Z,78.27
2019-05-14T02:00:47.037Z,78.72
2019-05-14T02:03:16.322Z,79.27
2019-05-14T02:06:06.953Z,79.10
2019-05-14T02:08:36.268Z,79.15
2019-05-14T02:11:24.455Z,79.30
2019-05-14T02:13:53.726Z,79.50
2019-05-14T02:16:22.994Z,79.65
2019-05-14T02:18:52.431Z,80.13
2019-05-14T02:21:42.548Z,80.18
2019-05-14T02:24:11.698Z,80.46
2019-05-14T02:26:42.433Z,80.84
2019-05-14T02:29:12.479Z,81.30
2019-05-14T02:31:42.987Z,81.52
2019-05-14T02:34:12.273Z,81.94
2019-05-14T02:36:52.948Z,82.80
2019-05-14T02:39:22.205Z,82.59
2019-05-14T02:41:51.491Z,84.34
2019-05-14T02:44:20.785Z,83.63
2019-05-14T02:46:50.781Z,83.60
2019-05-14T02:49:21.049Z,83.74
2019-05-14T02:51:50.761Z,83.53
2019-05-14T02:54:21.335Z,83.79
2019-05-14T02:56:50.672Z,84.00
2019-05-14T02:59:19.934Z,83.90
2019-05-14T03:01:50.338Z,83.77
2019-05-14T03:04:20.316Z,84.14
2019-05-14T03:06:50.048Z,84.25
2019-05-14T03:09:40.403Z,84.01
2019-05-14T03:12:10.666Z,84.22
2019-05-14T03:14:40.244Z,84.68
2019-05-14T03:17:10.973Z,84.47
2019-05-14T03:19:40.943Z,84.57
2019-05-14T03:22:11.233Z,84.41
2019-05-14T03:24:40.492Z,84.29
2019-05-14T03:27:10.195Z,84.38
2019-05-14T03:29:40.833Z,84.18
2019-05-14T03:32:13.012Z,84.23
2019-05-14T03:34:43.579Z,84.34
2019-05-14T03:40:09.329Z,85.05
2019-05-14T03:42:39.947Z,85.57
2019-05-14T03:45:19.796Z,85.09
2019-05-14T03:47:50.539Z,84.93
2019-05-14T03:50:20.209Z,85.02
2019-05-14T03:52:50.085Z,85.25
2019-05-14T03:55:40.267Z,84.99
2019-05-14T03:58:10.403Z,85.74
2019-05-14T04:07:10.624Z,86.97
2019-05-14T04:21:40.035Z,87.56
2019-05-14T04:24:49.678Z,87.58
2019-05-14T04:30:24.081Z,87.71
2019-05-14T04:38:34.674Z,87.62
2019-05-14T04:41:43.322Z,87.29
2019-05-14T04:44:12.609Z,87.23
2019-05-14T04:46:41.896Z,87.37
2019-05-14T04:49:11.186Z,87.21
2019-05-14T04:51:40.587Z,87.08
2019-05-14T04:54:09.888Z,87.32
2019-05-14T04:56:40.183Z,87.35
2019-05-14T04:59:10.706Z,87.31
2019-05-14T05:01:41.258Z,87.38
2019-05-14T05:06:59.362Z,87.72
2019-05-14T05:09:50.151Z,87.34
2019-05-14T05:14:54.880Z,86.44
2019-05-14T05:17:40.130Z,85.85
2019-05-14T05:19:55.193Z,85.18
2019-05-14T05:24:59.133Z,84.39
2019-05-14T05:27:28.767Z,83.73
2019-05-14T05:32:33.894Z,82.05
2019-05-14T05:35:03.196Z,79.29
2019-05-14T05:37:32.493Z,77.11
2019-05-14T05:40:20.767Z,75.25
2019-05-14T05:42:50.061Z,74.24
2019-05-14T05:45:38.425Z,71.66
2019-05-14T05:48:08.335Z,69.49
2019-05-14T05:50:39.014Z,69.03
2019-05-14T05:53:09.804Z,68.07
2019-05-14T05:55:59.373Z,66.24
2019-05-14T05:58:29.953Z,65.41
2019-05-14T06:01:00.028Z,64.31
2019-05-14T06:03:30.475Z,59.12
2019-05-14T06:06:00.356Z,60.61
2019-05-14T06:11:38.098Z,59.31
2019-05-14T06:14:08.440Z,59.31
2019-05-14T06:16:38.936Z,59.49
2019-05-14T06:19:08.468Z,59.83
2019-05-14T06:21:39.887Z,60.85
2019-05-14T06:24:10.260Z,58.05
2019-05-14T06:26:39.537Z,58.66
2019-05-14T06:29:08.862Z,59.60
2019-05-14T06:34:33.791Z,56.74
2019-05-14T06:37:03.154Z,55.78
2019-05-14T06:39:32.437Z,56.39
2019-05-14T06:42:01.737Z,56.44
2019-05-14T06:44:31.088Z,56.45
2019-05-14T06:47:00.450Z,50.81
2019-05-14T06:49:29.834Z,54.66
2019-05-14T06:51:59.496Z,55.04
2019-05-14T06:54:30.115Z,53.41
2019-05-14T06:56:59.415Z,54.35
2019-05-14T06:59:48.391Z,52.40
2019-05-14T07:04:59.016Z,50.40
2019-05-14T07:07:29.966Z,48.06
2019-05-14T07:09:59.902Z,50.39
2019-05-14T07:12:29.538Z,47.20
2019-05-14T07:15:00.212Z,48.03
2019-05-14T07:17:29.513Z,47.36
2019-05-14T07:20:18.931Z,46.06
2019-05-14T07:22:48.993Z,49.14
2019-05-14T07:25:18.474Z,50.42
2019-05-14T07:27:49.035Z,48.99
2019-05-14T07:30:59.358Z,49.97
2019-05-14T07:33:29.579Z,51.70
2019-05-14T07:36:00.194Z,49.08
2019-05-14T07:38:29.469Z,50.97
2019-05-14T07:40:58.898Z,50.96
2019-05-14T07:43:28.843Z,50.73
2019-05-14T07:45:59.224Z,46.98
2019-05-14T07:48:28.939Z,47.94
2019-05-14T07:51:00.176Z,46.40
2019-05-14T07:53:38.620Z,45.62
2019-05-14T07:58:38.623Z,45.83
2019-05-14T08:04:00.143Z,44.26
2019-05-14T08:06:28.494Z,43.88
2019-05-14T08:08:59.252Z,42.11
2019-05-14T08:11:28.831Z,42.79
2019-05-14T08:13:58.632Z,41.68
2019-05-14T08:16:29.321Z,43.31
2019-05-14T08:19:00.179Z,40.99
2019-05-14T08:21:29.668Z,43.61
2019-05-14T08:23:59.368Z,42.66
2019-05-14T08:26:29.984Z,40.86
2019-05-14T08:28:59.267Z,42.34
2019-05-14T08:31:29.285Z,43.82
2019-05-14T08:34:04.654Z,42.05
2019-05-14T08:36:30.630Z,41.26
2019-05-14T08:38:59.924Z,41.35
2019-05-14T08:41:29.215Z,40.81
2019-05-14T08:49:09.010Z,40.71
2019-05-14T08:51:39.391Z,39.13
2019-05-14T08:54:08.726Z,39.99
2019-05-14T08:56:38.881Z,39.19
2019-05-14T08:59:09.034Z,39.17
2019-05-14T09:01:38.893Z,39.79
2019-05-14T09:04:09.384Z,39.85
2019-05-14T09:06:38.705Z,40.58
2019-05-14T09:09:09.506Z,39.46
2019-05-14T09:11:44.990Z,40.78
2019-05-14T09:14:11.224Z,42.01
2019-05-14T09:19:15.913Z,42.97
2019-05-14T09:21:45.221Z,43.63
2019-05-14T09:24:14.509Z,44.66
2019-05-14T09:27:05.497Z,42.25
2019-05-14T09:29:33.915Z,44.04
2019-05-14T09:32:03.196Z,43.30
2019-05-14T09:34:32.493Z,43.53
2019-05-14T09:37:01.812Z,42.70
2019-05-14T09:39:31.111Z,43.02
2019-05-14T09:42:00.397Z,42.45
2019-05-14T09:44:29.698Z,38.30
2019-05-14T09:46:59.498Z,37.74
2019-05-14T09:49:29.997Z,39.69
2019-05-14T09:51:59.286Z,40.05
2019-05-14T09:57:03.676Z,41.21
2019-05-14T09:59:33.039Z,42.46
2019-05-14T10:02:02.330Z,42.13
2019-05-14T10:04:31.622Z,41.90
2019-05-14T10:07:00.902Z,42.25
2019-05-14T10:12:05.054Z,41.74
2019-05-14T10:14:34.380Z,39.32
2019-05-14T10:17:03.678Z,37.00
2019-05-14T10:22:21.345Z,37.66
2019-05-14T10:27:38.908Z,38.45
2019-05-14T10:33:22.849Z,36.79
2019-05-14T10:35:52.140Z,35.65
2019-05-14T10:38:21.431Z,35.86
2019-05-14T10:40:50.755Z,34.62
2019-05-14T10:43:20.046Z,35.08
2019-05-14T10:45:49.567Z,35.60
2019-05-14T10:48:20.391Z,34.47
2019-05-14T10:50:59.058Z,34.07
2019-05-14T10:53:20.727Z,31.41
2019-05-14T10:55:50.033Z,34.15
2019-05-14T10:58:19.868Z,36.21
2019-05-14T11:00:50.390Z,39.40
2019-05-14T11:03:19.672Z,38.37
2019-05-14T11:05:48.965Z,38.73
2019-05-14T11:08:18.947Z,39.75
2019-05-14T11:10:49.949Z,39.74
2019-05-14T11:13:20.328Z,38.27
2019-05-14T11:15:49.639Z,40.41
2019-05-14T11:18:19.840Z,39.86
2019-05-14T11:20:51.461Z,40.81
2019-05-14T11:23:21.006Z,40.31
2019-05-14T11:25:50.302Z,40.82
2019-05-14T11:28:19.634Z,40.62
2019-05-14T11:30:49.511Z,40.97
2019-05-14T11:33:39.147Z,41.21
2019-05-14T11:36:09.341Z,41.61
2019-05-14T11:38:39.504Z,40.84
2019-05-14T11:41:09.621Z,41.03
2019-05-14T11:43:51.610Z,41.79
2019-05-14T11:46:34.298Z,42.52
2019-05-14T11:48:54.048Z,42.37
2019-05-14T11:51:52.996Z,42.94
2019-05-14T11:53:54.404Z,42.87
2019-05-14T11:56:23.721Z,42.97
2019-05-14T11:59:11.997Z,42.63
2019-05-14T12:01:41.339Z,42.64
2019-05-14T12:04:10.689Z,43.04
2019-05-14T12:09:28.479Z,42.95
2019-05-14T12:11:59.290Z,42.77
2019-05-14T12:14:28.601Z,42.33
2019-05-14T12:16:59.960Z,42.87
2019-05-14T12:19:48.561Z,42.98
2019-05-14T12:22:19.245Z,43.17
2019-05-14T12:24:49.966Z,42.47
2019-05-14T12:27:19.423Z,42.40
2019-05-14T12:29:49.895Z,41.63
2019-05-14T12:32:19.720Z,42.30
2019-05-14T12:34:49.131Z,42.73
2019-05-14T12:37:18.796Z,42.27
2019-05-14T12:39:49.537Z,43.07
2019-05-14T12:44:54.149Z,43.68
2019-05-14T12:47:23.438Z,43.31
2019-05-14T12:49:52.718Z,44.12
2019-05-14T12:57:59.657Z,44.96
2019-05-14T13:00:29.287Z,45.94
2019-05-14T13:02:58.718Z,46.05
2019-05-14T13:05:29.307Z,46.26
2019-05-14T13:07:59.045Z,45.17
2019-05-14T13:10:29.492Z,44.96
2019-05-14T13:12:59.388Z,44.79
2019-05-14T13:15:28.943Z,44.29
2019-05-14T13:17:59.721Z,44.00
2019-05-14T13:20:29.179Z,44.60
2019-05-14T13:22:58.524Z,43.95
2019-05-14T13:25:30.386Z,44.16
2019-05-14T13:27:59.446Z,45.68
2019-05-14T13:30:30.014Z,45.10
2019-05-14T13:32:59.392Z,44.82
2019-05-14T13:38:17.011Z,44.35
2019-05-14T13:41:28.315Z,44.72
2019-05-14T13:43:58.811Z,44.70
2019-05-14T13:46:28.817Z,45.22
2019-05-14T13:48:59.431Z,43.85
2019-05-14T13:51:33.410Z,44.52
2019-05-14T13:54:01.252Z,44.59
2019-05-14T13:56:30.538Z,44.59
2019-05-14T13:58:59.856Z,46.05
2019-05-14T14:01:29.695Z,45.40
2019-05-14T14:04:10.250Z,45.83
2019-05-14T14:06:31.213Z,43.24
2019-05-14T14:09:00.499Z,42.93
2019-05-14T14:11:31.444Z,43.95
2019-05-14T14:14:00.804Z,44.64
2019-05-14T14:16:30.078Z,44.52
2019-05-14T14:19:03.433Z,46.61
2019-05-14T14:21:30.466Z,48.51
2019-05-14T14:23:59.757Z,49.20
2019-05-14T14:26:29.356Z,49.79
2019-05-14T14:29:00.175Z,50.15
2019-05-14T14:31:29.444Z,49.58
2019-05-14T14:33:58.756Z,50.11
2019-05-14T14:36:29.985Z,48.35
2019-05-14T14:38:59.074Z,48.31
2019-05-14T14:41:28.571Z,49.02
2019-05-14T14:43:59.435Z,48.89
2019-05-14T14:46:28.868Z,48.91
2019-05-14T14:49:02.381Z,51.86
2019-05-14T14:51:29.194Z,52.59
2019-05-14T14:54:02.822Z,52.21
2019-05-14T14:56:29.521Z,50.40
2019-05-14T15:01:33.388Z,49.09
2019-05-14T15:07:10.077Z,50.87
2019-05-14T15:09:40.464Z,48.60
2019-05-14T15:12:10.428Z,51.91
2019-05-14T15:14:39.846Z,50.86
2019-05-14T15:17:29.454Z,49.36
2019-05-14T15:19:59.657Z,48.51
2019-05-14T15:22:31.169Z,48.63
2019-05-14T15:25:01.230Z,48.76
2019-05-14T15:27:30.537Z,48.67
2019-05-14T15:29:59.840Z,48.16
2019-05-14T15:32:30.315Z,47.00
2019-05-14T15:35:00.150Z,47.54
2019-05-14T15:37:42.144Z,47.65
2019-05-14T15:43:22.427Z,46.49
2019-05-14T15:45:51.702Z,47.26
2019-05-14T15:48:20.995Z,46.97
2019-05-14T15:50:50.483Z,47.62
2019-05-14T15:53:19.741Z,48.09
2019-05-14T15:55:49.227Z,47.92
2019-05-14T15:58:21.535Z,48.53
2019-05-14T16:00:49.616Z,47.77
2019-05-14T16:03:18.990Z,48.13
2019-05-14T16:05:48.828Z,48.47
2019-05-14T16:08:22.799Z,47.01
2019-05-14T16:10:50.301Z,46.17
2019-05-14T16:13:21.228Z,47.21
2019-05-14T16:15:50.611Z,47.64
2019-05-14T16:18:22.456Z,46.87
2019-05-14T16:21:02.741Z,46.50
2019-05-14T16:23:32.045Z,46.04
2019-05-14T16:26:01.391Z,47.41
2019-05-14T16:28:30.703Z,48.48
2019-05-14T16:31:00.022Z,48.64
2019-05-14T16:33:29.743Z,46.54
2019-05-14T16:36:00.358Z,46.54
2019-05-14T16:38:29.641Z,47.29
2019-05-14T16:40:59.741Z,47.86
2019-05-14T16:43:32.391Z,48.91
2019-05-14T16:48:36.074Z,49.17
2019-05-14T16:51:24.492Z,49.78
2019-05-14T16:53:53.790Z,50.53
2019-05-14T16:56:23.134Z,50.55
2019-05-14T16:58:52.450Z,50.00
2019-05-14T17:01:21.745Z,50.93
2019-05-14T17:03:51.092Z,51.19
2019-05-14T17:06:20.591Z,52.22
2019-05-14T17:08:49.955Z,52.40
2019-05-14T17:11:19.350Z,52.49
2019-05-14T17:13:49.164Z,52.54
2019-05-14T17:16:19.827Z,52.94
2019-05-14T17:18:49.185Z,53.25
2019-05-14T17:21:18.489Z,52.34
2019-05-14T17:23:48.810Z,52.62
2019-05-14T17:29:08.741Z,52.28
2019-05-14T17:31:39.158Z,51.94
2019-05-14T17:34:09.270Z,52.16
2019-05-14T17:36:39.161Z,51.98
2019-05-14T17:39:10.146Z,51.78
2019-05-14T17:41:42.021Z,51.87
2019-05-14T17:44:10.530Z,52.29
2019-05-14T17:46:39.868Z,52.89
2019-05-14T17:49:09.161Z,52.93
2019-05-14T17:51:39.068Z,52.97
2019-05-14T17:54:09.466Z,53.80
2019-05-14T17:56:59.184Z,54.73
2019-05-14T17:59:29.815Z,55.47
2019-05-14T18:01:59.893Z,54.44
2019-05-14T18:04:29.207Z,55.91
2019-05-14T18:06:59.250Z,57.15
2019-05-14T18:09:29.535Z,56.84
2019-05-14T18:14:48.133Z,58.55
2019-05-14T18:17:18.807Z,59.68
2019-05-14T18:19:49.370Z,60.62
2019-05-14T18:22:19.364Z,60.70
2019-05-14T18:24:49.689Z,61.47
2019-05-14T18:27:19.653Z,61.89
2019-05-14T18:29:50.048Z,62.42
2019-05-14T18:38:02.203Z,63.20
2019-05-14T18:40:31.513Z,62.97
2019-05-14T18:43:00.827Z,63.09
2019-05-14T18:45:30.157Z,62.71
2019-05-14T18:47:59.454Z,62.91
2019-05-14T18:50:29.070Z,62.85
2019-05-14T18:52:59.985Z,62.84
2019-05-14T18:55:29.536Z,64.19
2019-05-14T18:58:00.272Z,64.90
2019-05-14T19:03:19.767Z,64.45
2019-05-14T19:05:48.916Z,64.31
2019-05-14T19:08:18.194Z,64.79
2019-05-14T19:10:49.617Z,65.00
2019-05-14T19:13:18.771Z,66.19
2019-05-14T19:15:49.610Z,65.65
2019-05-14T19:18:38.611Z,65.88
2019-05-14T19:21:08.963Z,66.61
2019-05-14T19:23:38.614Z,67.19
2019-05-14T19:26:09.669Z,66.70
2019-05-14T19:28:40.415Z,66.94
2019-05-14T19:31:09.794Z,67.35
2019-05-14T19:33:39.081Z,67.73
2019-05-14T19:36:08.987Z,68.27
2019-05-14T19:38:39.429Z,69.04
2019-05-14T19:41:08.948Z,69.74
2019-05-14T19:43:38.214Z,69.88
2019-05-14T19:46:08.778Z,69.70
2019-05-14T19:48:39.225Z,70.29
2019-05-14T19:51:09.072Z,70.81
2019-05-14T19:53:39.332Z,71.31
2019-05-14T19:56:09.817Z,71.36
2019-05-14T19:58:39.108Z,71.84
2019-05-14T20:01:48.387Z,72.10
2019-05-14T20:04:20.589Z,73.33
2019-05-14T20:06:49.917Z,73.33
2019-05-14T20:09:19.212Z,73.85
2019-05-14T20:12:07.546Z,74.13
2019-05-14T20:14:38.244Z,74.13
2019-05-14T20:17:08.893Z,75.18
2019-05-14T20:19:39.600Z,74.96
2019-05-14T20:22:09.929Z,75.14
2019-05-14T20:24:41.539Z,74.91
2019-05-14T20:27:12.392Z,75.38
2019-05-14T20:29:41.317Z,75.48
2019-05-14T20:32:10.630Z,76.15
2019-05-14T20:34:39.980Z,76.07
2019-05-14T20:37:09.252Z,76.48
2019-05-14T20:39:38.993Z,76.40
2019-05-14T20:42:09.559Z,76.72
2019-05-14T20:44:38.869Z,77.34
2019-05-14T20:47:09.112Z,77.72
2019-05-14T20:49:39.334Z,78.07
2019-05-14T20:52:08.823Z,77.94
2019-05-14T20:54:58.317Z,78.09
2019-05-14T20:57:33.207Z,78.46
2019-05-14T20:59:59.165Z,78.51
2019-05-14T21:02:47.427Z,78.90
2019-05-14T21:08:18.842Z,79.56
2019-05-14T21:16:11.604Z,80.10
2019-05-14T21:18:41.288Z,80.39
2019-05-14T21:21:11.958Z,80.43
2019-05-14T21:23:41.240Z,80.73
2019-05-14T21:26:10.537Z,80.75
2019-05-14T21:28:39.809Z,81.35
2019-05-14T21:31:10.514Z,80.93
2019-05-14T21:33:40.151Z,81.21
2019-05-14T21:36:12.278Z,81.00
2019-05-14T21:38:41.002Z,80.95
2019-05-14T21:41:11.474Z,80.74
2019-05-14T21:43:40.754Z,81.05
2019-05-14T21:46:10.049Z,80.99
2019-05-14T21:48:39.352Z,81.20
2019-05-14T21:51:08.895Z,81.48
2019-05-14T21:53:41.041Z,81.96
2019-05-14T21:56:09.152Z,82.50
2019-05-14T21:58:38.817Z,82.36
2019-05-14T22:04:23.564Z,82.62
2019-05-14T22:09:41.424Z,82.97
2019-05-14T22:12:12.136Z,82.98
2019-05-14T22:14:41.401Z,83.16
2019-05-14T22:17:29.681Z,83.65
2019-05-14T22:22:48.352Z,84.31
2019-05-14T22:25:18.945Z,83.99
2019-05-14T22:27:49.198Z,83.72
2019-05-14T22:33:30.810Z,83.84
2019-05-14T22:36:21.372Z,84.20
2019-05-14T22:38:50.159Z,84.16
2019-05-14T22:41:19.460Z,84.17
2019-05-14T22:43:51.527Z,84.12
2019-05-14T22:46:19.769Z,85.55
2019-05-14T22:48:51.641Z,85.35
2019-05-14T22:51:20.051Z,84.92
2019-05-14T22:53:49.552Z,84.94
2019-05-14T22:56:20.332Z,85.78
2019-05-14T22:58:49.624Z,85.39
2019-05-14T23:04:08.981Z,85.64
2019-05-14T23:06:38.464Z,85.95
2019-05-14T23:09:09.267Z,86.38
2019-05-14T23:11:38.765Z,86.17
2019-05-14T23:14:09.535Z,86.45
2019-05-14T23:16:41.860Z,87.27
2019-05-14T23:19:09.842Z,87.52
2019-05-14T23:21:39.312Z,87.12
2019-05-14T23:24:09.352Z,86.84
2019-05-14T23:26:39.611Z,87.42
2019-05-14T23:29:08.893Z,87.81
2019-05-14T23:31:38.625Z,87.24
2019-05-14T23:34:28.543Z,87.69
2019-05-14T23:39:49.304Z,87.79
2019-05-14T23:42:18.745Z,87.94
2019-05-14T23:45:08.164Z,87.52
2019-05-14T23:47:38.479Z,88.17
2019-05-14T23:52:59.854Z,88.11
2019-05-14T23:55:48.139Z,88.11
2019-05-14T23:58:20.565Z,89.20
